sensor_id;sensor_type;location;lat;lon;timestamp;P1;durP1;ratioP1;P2;durP2;ratioP2
4074;SDS011;2052;53.522;9.806;2024-02-14T00:00:53;3.50;;;3.20;;
4074;SDS011;2052;53.522;9.806;2024-02-14T00:03:20;4.70;;;3.57;;
4074;SDS011;2052;53.522;9.806;2024-02-14T00:05:48;12.30;;;3.30;;
4074;SDS011;2052;53.522;9.806;2024-02-14T00:08:17;4.23;;;3.60;;
4074;SDS011;2052;53.522;9.806;2024-02-14T00:10:43;3.93;;;3.53;;
4074;SDS011;2052;53.522;9.806;2024-02-14T00:13:10;4.47;;;3.20;;
4074;SDS011;2052;53.522;9.806;2024-02-14T00:15:37;3.17;;;2.87;;
4074;SDS011;2052;53.522;9.806;2024-02-14T00:18:05;6.60;;;3.30;;
4074;SDS011;2052;53.522;9.806;2024-02-14T00:20:32;4.20;;;3.20;;
4074;SDS011;2052;53.522;9.806;2024-02-14T00:22:58;6.33;;;3.03;;
4074;SDS011;2052;53.522;9.806;2024-02-14T00:25:26;4.77;;;3.40;;
4074;SDS011;2052;53.522;9.806;2024-02-14T00:27:53;4.53;;;3.53;;
4074;SDS011;2052;53.522;9.806;2024-02-14T00:30:22;9.70;;;3.30;;
4074;SDS011;2052;53.522;9.806;2024-02-14T00:32:50;5.20;;;3.70;;
4074;SDS011;2052;53.522;9.806;2024-02-14T00:35:18;4.53;;;2.80;;
4074;SDS011;2052;53.522;9.806;2024-02-14T00:37:44;4.50;;;3.20;;
4074;SDS011;2052;53.522;9.806;2024-02-14T00:40:11;5.70;;;3.27;;
4074;SDS011;2052;53.522;9.806;2024-02-14T00:42:38;8.23;;;3.00;;
4074;SDS011;2052;53.522;9.806;2024-02-14T00:45:05;5.60;;;3.30;;
4074;SDS011;2052;53.522;9.806;2024-02-14T00:47:33;4.10;;;3.10;;
4074;SDS011;2052;53.522;9.806;2024-02-14T00:50:00;4.37;;;3.37;;
4074;SDS011;2052;53.522;9.806;2024-02-14T00:52:29;5.40;;;3.60;;
4074;SDS011;2052;53.522;9.806;2024-02-14T00:54:55;4.70;;;3.30;;
4074;SDS011;2052;53.522;9.806;2024-02-14T00:57:22;4.83;;;3.47;;
4074;SDS011;2052;53.522;9.806;2024-02-14T00:59:51;6.27;;;3.60;;
4074;SDS011;2052;53.522;9.806;2024-02-14T01:02:17;3.60;;;3.30;;
4074;SDS011;2052;53.522;9.806;2024-02-14T01:04:44;3.30;;;3.00;;
4074;SDS011;2052;53.522;9.806;2024-02-14T01:07:11;5.00;;;4.00;;
4074;SDS011;2052;53.522;9.806;2024-02-14T01:09:39;2.77;;;2.57;;
4074;SDS011;2052;53.522;9.806;2024-02-14T01:12:05;4.80;;;3.50;;
4074;SDS011;2052;53.522;9.806;2024-02-14T01:14:32;8.50;;;4.13;;
4074;SDS011;2052;53.522;9.806;2024-02-14T01:16:59;5.23;;;3.43;;
4074;SDS011;2052;53.522;9.806;2024-02-14T01:19:25;5.30;;;3.33;;
4074;SDS011;2052;53.522;9.806;2024-02-14T01:21:53;3.13;;;2.83;;
4074;SDS011;2052;53.522;9.806;2024-02-14T01:24:21;6.97;;;2.67;;
4074;SDS011;2052;53.522;9.806;2024-02-14T01:26:53;7.23;;;3.77;;
4074;SDS011;2052;53.522;9.806;2024-02-14T01:29:20;4.60;;;3.17;;
4074;SDS011;2052;53.522;9.806;2024-02-14T01:31:47;6.43;;;3.50;;
4074;SDS011;2052;53.522;9.806;2024-02-14T01:34:14;5.73;;;4.13;;
4074;SDS011;2052;53.522;9.806;2024-02-14T01:36:40;6.57;;;4.10;;
4074;SDS011;2052;53.522;9.806;2024-02-14T01:39:07;4.90;;;3.30;;
4074;SDS011;2052;53.522;9.806;2024-02-14T01:41:36;6.60;;;3.60;;
4074;SDS011;2052;53.522;9.806;2024-02-14T01:44:04;8.70;;;4.07;;
4074;SDS011;2052;53.522;9.806;2024-02-14T01:46:31;7.10;;;4.17;;
4074;SDS011;2052;53.522;9.806;2024-02-14T01:48:58;5.43;;;4.30;;
4074;SDS011;2052;53.522;9.806;2024-02-14T01:51:25;4.47;;;3.93;;
4074;SDS011;2052;53.522;9.806;2024-02-14T01:53:52;7.10;;;3.60;;
4074;SDS011;2052;53.522;9.806;2024-02-14T01:56:20;5.90;;;4.40;;
4074;SDS011;2052;53.522;9.806;2024-02-14T01:58:48;7.73;;;3.93;;
4074;SDS011;2052;53.522;9.806;2024-02-14T02:01:16;6.47;;;3.77;;
4074;SDS011;2052;53.522;9.806;2024-02-14T02:03:44;6.77;;;4.53;;
4074;SDS011;2052;53.522;9.806;2024-02-14T02:06:10;11.67;;;3.90;;
4074;SDS011;2052;53.522;9.806;2024-02-14T02:08:38;6.97;;;4.30;;
4074;SDS011;2052;53.522;9.806;2024-02-14T02:11:05;5.50;;;3.63;;
4074;SDS011;2052;53.522;9.806;2024-02-14T02:13:32;5.73;;;4.00;;
4074;SDS011;2052;53.522;9.806;2024-02-14T02:15:59;8.83;;;4.30;;
4074;SDS011;2052;53.522;9.806;2024-02-14T02:18:29;4.80;;;3.73;;
4074;SDS011;2052;53.522;9.806;2024-02-14T02:20:56;6.03;;;3.90;;
4074;SDS011;2052;53.522;9.806;2024-02-14T02:23:24;4.20;;;3.53;;
4074;SDS011;2052;53.522;9.806;2024-02-14T02:25:51;7.00;;;4.00;;
4074;SDS011;2052;53.522;9.806;2024-02-14T02:28:18;8.00;;;4.07;;
4074;SDS011;2052;53.522;9.806;2024-02-14T02:30:44;7.73;;;4.27;;
4074;SDS011;2052;53.522;9.806;2024-02-14T02:33:11;5.17;;;3.87;;
4074;SDS011;2052;53.522;9.806;2024-02-14T02:35:41;10.33;;;3.47;;
4074;SDS011;2052;53.522;9.806;2024-02-14T02:38:10;5.13;;;3.77;;
4074;SDS011;2052;53.522;9.806;2024-02-14T02:40:38;4.93;;;3.93;;
4074;SDS011;2052;53.522;9.806;2024-02-14T02:43:05;10.20;;;5.93;;
4074;SDS011;2052;53.522;9.806;2024-02-14T02:45:32;11.70;;;4.30;;
4074;SDS011;2052;53.522;9.806;2024-02-14T02:47:59;6.07;;;3.87;;
4074;SDS011;2052;53.522;9.806;2024-02-14T02:50:26;6.77;;;4.83;;
4074;SDS011;2052;53.522;9.806;2024-02-14T02:52:54;6.20;;;4.00;;
4074;SDS011;2052;53.522;9.806;2024-02-14T02:55:22;6.33;;;4.37;;
4074;SDS011;2052;53.522;9.806;2024-02-14T02:57:53;10.60;;;4.77;;
4074;SDS011;2052;53.522;9.806;2024-02-14T03:00:20;5.30;;;4.70;;
4074;SDS011;2052;53.522;9.806;2024-02-14T03:02:47;7.10;;;4.30;;
4074;SDS011;2052;53.522;9.806;2024-02-14T03:05:14;7.60;;;4.43;;
4074;SDS011;2052;53.522;9.806;2024-02-14T03:07:45;5.77;;;4.30;;
4074;SDS011;2052;53.522;9.806;2024-02-14T03:10:13;8.73;;;4.70;;
4074;SDS011;2052;53.522;9.806;2024-02-14T03:12:42;6.33;;;4.37;;
4074;SDS011;2052;53.522;9.806;2024-02-14T03:15:13;8.33;;;4.33;;
4074;SDS011;2052;53.522;9.806;2024-02-14T03:17:39;5.57;;;4.40;;
4074;SDS011;2052;53.522;9.806;2024-02-14T03:20:07;6.77;;;4.73;;
4074;SDS011;2052;53.522;9.806;2024-02-14T03:22:37;7.30;;;4.50;;
4074;SDS011;2052;53.522;9.806;2024-02-14T03:25:09;9.17;;;4.57;;
4074;SDS011;2052;53.522;9.806;2024-02-14T03:27:38;5.50;;;4.47;;
4074;SDS011;2052;53.522;9.806;2024-02-14T03:30:05;4.83;;;4.33;;
4074;SDS011;2052;53.522;9.806;2024-02-14T03:32:34;7.17;;;4.23;;
4074;SDS011;2052;53.522;9.806;2024-02-14T03:35:01;9.97;;;4.70;;
4074;SDS011;2052;53.522;9.806;2024-02-14T03:37:27;5.83;;;3.80;;
4074;SDS011;2052;53.522;9.806;2024-02-14T03:39:54;6.83;;;4.33;;
4074;SDS011;2052;53.522;9.806;2024-02-14T03:42:21;7.17;;;4.50;;
4074;SDS011;2052;53.522;9.806;2024-02-14T03:44:47;5.60;;;4.50;;
4074;SDS011;2052;53.522;9.806;2024-02-14T03:47:14;5.27;;;4.10;;
4074;SDS011;2052;53.522;9.806;2024-02-14T03:49:42;6.40;;;4.47;;
4074;SDS011;2052;53.522;9.806;2024-02-14T03:52:08;8.43;;;5.00;;
4074;SDS011;2052;53.522;9.806;2024-02-14T03:54:36;7.63;;;4.13;;
4074;SDS011;2052;53.522;9.806;2024-02-14T03:57:03;6.37;;;4.13;;
4074;SDS011;2052;53.522;9.806;2024-02-14T03:59:32;7.73;;;4.93;;
4074;SDS011;2052;53.522;9.806;2024-02-14T04:02:04;6.70;;;4.47;;
4074;SDS011;2052;53.522;9.806;2024-02-14T04:04:32;5.03;;;4.00;;
4074;SDS011;2052;53.522;9.806;2024-02-14T04:07:01;5.70;;;4.30;;
4074;SDS011;2052;53.522;9.806;2024-02-14T04:09:28;6.30;;;4.27;;
4074;SDS011;2052;53.522;9.806;2024-02-14T04:11:56;7.67;;;4.50;;
4074;SDS011;2052;53.522;9.806;2024-02-14T04:14:22;7.77;;;3.87;;
4074;SDS011;2052;53.522;9.806;2024-02-14T04:16:49;5.17;;;4.00;;
4074;SDS011;2052;53.522;9.806;2024-02-14T04:19:15;5.83;;;4.40;;
4074;SDS011;2052;53.522;9.806;2024-02-14T04:21:42;8.47;;;4.23;;
4074;SDS011;2052;53.522;9.806;2024-02-14T04:24:10;6.40;;;4.00;;
4074;SDS011;2052;53.522;9.806;2024-02-14T04:26:37;12.23;;;4.60;;
4074;SDS011;2052;53.522;9.806;2024-02-14T04:29:04;6.80;;;4.27;;
4074;SDS011;2052;53.522;9.806;2024-02-14T04:31:30;5.90;;;4.27;;
4074;SDS011;2052;53.522;9.806;2024-02-14T04:33:57;5.60;;;4.27;;
4074;SDS011;2052;53.522;9.806;2024-02-14T04:36:24;6.20;;;5.10;;
4074;SDS011;2052;53.522;9.806;2024-02-14T04:38:51;10.20;;;4.90;;
4074;SDS011;2052;53.522;9.806;2024-02-14T04:41:22;7.50;;;4.67;;
4074;SDS011;2052;53.522;9.806;2024-02-14T04:43:48;8.63;;;5.17;;
4074;SDS011;2052;53.522;9.806;2024-02-14T04:46:15;8.10;;;4.30;;
4074;SDS011;2052;53.522;9.806;2024-02-14T04:48:42;6.60;;;4.13;;
4074;SDS011;2052;53.522;9.806;2024-02-14T04:51:09;6.83;;;4.67;;
4074;SDS011;2052;53.522;9.806;2024-02-14T04:53:44;7.33;;;4.60;;
4074;SDS011;2052;53.522;9.806;2024-02-14T04:56:10;6.90;;;5.20;;
4074;SDS011;2052;53.522;9.806;2024-02-14T04:58:38;10.40;;;4.83;;
4074;SDS011;2052;53.522;9.806;2024-02-14T05:01:04;5.80;;;4.20;;
4074;SDS011;2052;53.522;9.806;2024-02-14T05:03:32;7.33;;;4.40;;
4074;SDS011;2052;53.522;9.806;2024-02-14T05:05:58;7.13;;;4.50;;
4074;SDS011;2052;53.522;9.806;2024-02-14T05:08:27;7.50;;;4.70;;
4074;SDS011;2052;53.522;9.806;2024-02-14T05:10:54;5.77;;;3.93;;
4074;SDS011;2052;53.522;9.806;2024-02-14T05:13:20;7.20;;;4.73;;
4074;SDS011;2052;53.522;9.806;2024-02-14T05:15:48;5.97;;;4.67;;
4074;SDS011;2052;53.522;9.806;2024-02-14T05:18:16;4.17;;;3.73;;
4074;SDS011;2052;53.522;9.806;2024-02-14T05:20:42;8.30;;;4.00;;
4074;SDS011;2052;53.522;9.806;2024-02-14T05:23:09;7.20;;;3.97;;
4074;SDS011;2052;53.522;9.806;2024-02-14T05:25:36;5.50;;;3.97;;
4074;SDS011;2052;53.522;9.806;2024-02-14T05:28:03;5.80;;;4.00;;
4074;SDS011;2052;53.522;9.806;2024-02-14T05:30:29;5.47;;;4.20;;
4074;SDS011;2052;53.522;9.806;2024-02-14T05:32:58;6.13;;;4.20;;
4074;SDS011;2052;53.522;9.806;2024-02-14T05:35:26;6.20;;;3.40;;
4074;SDS011;2052;53.522;9.806;2024-02-14T05:37:53;8.60;;;3.97;;
4074;SDS011;2052;53.522;9.806;2024-02-14T05:40:20;6.60;;;4.03;;
4074;SDS011;2052;53.522;9.806;2024-02-14T05:42:49;5.33;;;4.07;;
4074;SDS011;2052;53.522;9.806;2024-02-14T05:45:15;4.50;;;4.00;;
4074;SDS011;2052;53.522;9.806;2024-02-14T05:47:42;5.27;;;3.70;;
4074;SDS011;2052;53.522;9.806;2024-02-14T05:50:10;8.33;;;4.33;;
4074;SDS011;2052;53.522;9.806;2024-02-14T05:52:38;7.33;;;4.13;;
4074;SDS011;2052;53.522;9.806;2024-02-14T05:55:05;7.30;;;5.03;;
4074;SDS011;2052;53.522;9.806;2024-02-14T05:57:33;9.63;;;4.83;;
4074;SDS011;2052;53.522;9.806;2024-02-14T06:00:00;6.90;;;5.00;;
4074;SDS011;2052;53.522;9.806;2024-02-14T06:02:28;4.57;;;3.40;;
4074;SDS011;2052;53.522;9.806;2024-02-14T06:04:54;5.90;;;3.80;;
4074;SDS011;2052;53.522;9.806;2024-02-14T06:07:23;6.50;;;3.80;;
4074;SDS011;2052;53.522;9.806;2024-02-14T06:09:50;3.93;;;3.47;;
4074;SDS011;2052;53.522;9.806;2024-02-14T06:12:17;5.17;;;3.60;;
4074;SDS011;2052;53.522;9.806;2024-02-14T06:14:47;9.03;;;3.83;;
4074;SDS011;2052;53.522;9.806;2024-02-14T06:17:14;6.03;;;3.90;;
4074;SDS011;2052;53.522;9.806;2024-02-14T06:19:41;7.30;;;3.93;;
4074;SDS011;2052;53.522;9.806;2024-02-14T06:22:08;5.33;;;3.50;;
4074;SDS011;2052;53.522;9.806;2024-02-14T06:24:37;4.10;;;3.40;;
4074;SDS011;2052;53.522;9.806;2024-02-14T06:27:04;4.30;;;3.73;;
4074;SDS011;2052;53.522;9.806;2024-02-14T06:29:30;4.70;;;3.53;;
4074;SDS011;2052;53.522;9.806;2024-02-14T06:31:57;4.20;;;3.60;;
4074;SDS011;2052;53.522;9.806;2024-02-14T06:34:25;5.27;;;3.60;;
4074;SDS011;2052;53.522;9.806;2024-02-14T06:36:53;6.47;;;4.10;;
4074;SDS011;2052;53.522;9.806;2024-02-14T06:39:19;6.27;;;4.10;;
4074;SDS011;2052;53.522;9.806;2024-02-14T06:41:48;4.90;;;3.80;;
4074;SDS011;2052;53.522;9.806;2024-02-14T06:44:14;6.47;;;4.27;;
4074;SDS011;2052;53.522;9.806;2024-02-14T06:46:42;8.93;;;4.50;;
4074;SDS011;2052;53.522;9.806;2024-02-14T06:49:09;5.30;;;4.80;;
4074;SDS011;2052;53.522;9.806;2024-02-14T06:51:36;6.47;;;4.13;;
4074;SDS011;2052;53.522;9.806;2024-02-14T06:54:02;5.67;;;3.87;;
4074;SDS011;2052;53.522;9.806;2024-02-14T06:56:29;8.43;;;5.57;;
4074;SDS011;2052;53.522;9.806;2024-02-14T06:59:00;7.90;;;4.80;;
4074;SDS011;2052;53.522;9.806;2024-02-14T07:01:27;21.23;;;4.60;;
4074;SDS011;2052;53.522;9.806;2024-02-14T07:03:55;5.80;;;4.40;;
4074;SDS011;2052;53.522;9.806;2024-02-14T07:06:21;6.73;;;4.23;;
4074;SDS011;2052;53.522;9.806;2024-02-14T07:08:48;10.43;;;5.47;;
4074;SDS011;2052;53.522;9.806;2024-02-14T07:11:16;4.50;;;4.10;;
4074;SDS011;2052;53.522;9.806;2024-02-14T07:13:43;10.10;;;5.67;;
4074;SDS011;2052;53.522;9.806;2024-02-14T07:16:11;7.03;;;4.77;;
4074;SDS011;2052;53.522;9.806;2024-02-14T07:18:37;8.90;;;5.57;;
4074;SDS011;2052;53.522;9.806;2024-02-14T07:21:05;6.50;;;4.20;;
4074;SDS011;2052;53.522;9.806;2024-02-14T07:23:32;7.40;;;4.70;;
4074;SDS011;2052;53.522;9.806;2024-02-14T07:25:59;6.80;;;4.47;;
4074;SDS011;2052;53.522;9.806;2024-02-14T07:28:27;8.10;;;4.90;;
4074;SDS011;2052;53.522;9.806;2024-02-14T07:30:53;8.57;;;5.20;;
4074;SDS011;2052;53.522;9.806;2024-02-14T07:33:21;6.20;;;4.10;;
4074;SDS011;2052;53.522;9.806;2024-02-14T07:35:48;5.57;;;3.40;;
4074;SDS011;2052;53.522;9.806;2024-02-14T07:38:15;6.57;;;4.83;;
4074;SDS011;2052;53.522;9.806;2024-02-14T07:40:42;5.83;;;4.50;;
4074;SDS011;2052;53.522;9.806;2024-02-14T07:43:09;6.70;;;4.90;;
4074;SDS011;2052;53.522;9.806;2024-02-14T07:45:36;8.17;;;4.23;;
4074;SDS011;2052;53.522;9.806;2024-02-14T07:48:02;8.60;;;5.23;;
4074;SDS011;2052;53.522;9.806;2024-02-14T07:50:31;6.17;;;4.87;;
4074;SDS011;2052;53.522;9.806;2024-02-14T07:52:58;6.97;;;4.27;;
4074;SDS011;2052;53.522;9.806;2024-02-14T07:55:24;7.17;;;4.37;;
4074;SDS011;2052;53.522;9.806;2024-02-14T07:57:51;7.20;;;4.47;;
4074;SDS011;2052;53.522;9.806;2024-02-14T08:00:19;7.90;;;4.83;;
4074;SDS011;2052;53.522;9.806;2024-02-14T08:02:48;6.37;;;5.07;;
4074;SDS011;2052;53.522;9.806;2024-02-14T08:05:15;8.73;;;5.07;;
4074;SDS011;2052;53.522;9.806;2024-02-14T08:07:43;8.77;;;4.43;;
4074;SDS011;2052;53.522;9.806;2024-02-14T08:10:10;5.67;;;4.50;;
4074;SDS011;2052;53.522;9.806;2024-02-14T08:12:37;5.73;;;4.20;;
4074;SDS011;2052;53.522;9.806;2024-02-14T08:15:04;7.80;;;5.40;;
4074;SDS011;2052;53.522;9.806;2024-02-14T08:17:31;6.10;;;4.00;;
4074;SDS011;2052;53.522;9.806;2024-02-14T08:20:01;6.60;;;4.30;;
4074;SDS011;2052;53.522;9.806;2024-02-14T08:22:29;7.90;;;4.90;;
4074;SDS011;2052;53.522;9.806;2024-02-14T08:24:57;6.33;;;3.80;;
4074;SDS011;2052;53.522;9.806;2024-02-14T08:27:24;5.40;;;4.03;;
4074;SDS011;2052;53.522;9.806;2024-02-14T08:29:50;6.63;;;4.30;;
4074;SDS011;2052;53.522;9.806;2024-02-14T08:32:17;7.50;;;4.43;;
4074;SDS011;2052;53.522;9.806;2024-02-14T08:34:43;4.93;;;4.10;;
4074;SDS011;2052;53.522;9.806;2024-02-14T08:37:10;9.00;;;5.90;;
4074;SDS011;2052;53.522;9.806;2024-02-14T08:39:37;4.90;;;3.77;;
4074;SDS011;2052;53.522;9.806;2024-02-14T08:42:07;6.43;;;3.83;;
4074;SDS011;2052;53.522;9.806;2024-02-14T08:44:34;4.87;;;3.50;;
4074;SDS011;2052;53.522;9.806;2024-02-14T08:47:06;5.80;;;3.90;;
4074;SDS011;2052;53.522;9.806;2024-02-14T08:49:32;4.30;;;3.73;;
4074;SDS011;2052;53.522;9.806;2024-02-14T08:51:59;5.13;;;4.03;;
4074;SDS011;2052;53.522;9.806;2024-02-14T08:54:26;4.40;;;3.80;;
4074;SDS011;2052;53.522;9.806;2024-02-14T08:56:53;5.87;;;4.30;;
4074;SDS011;2052;53.522;9.806;2024-02-14T08:59:25;5.40;;;4.10;;
4074;SDS011;2052;53.522;9.806;2024-02-14T09:01:51;7.30;;;4.70;;
4074;SDS011;2052;53.522;9.806;2024-02-14T09:04:18;6.63;;;4.30;;
4074;SDS011;2052;53.522;9.806;2024-02-14T09:06:44;4.23;;;3.73;;
4074;SDS011;2052;53.522;9.806;2024-02-14T09:09:11;7.20;;;4.23;;
4074;SDS011;2052;53.522;9.806;2024-02-14T09:11:39;6.00;;;3.90;;
4074;SDS011;2052;53.522;9.806;2024-02-14T09:14:06;5.90;;;4.00;;
4074;SDS011;2052;53.522;9.806;2024-02-14T09:16:34;6.70;;;4.83;;
4074;SDS011;2052;53.522;9.806;2024-02-14T09:19:00;4.73;;;3.80;;
4074;SDS011;2052;53.522;9.806;2024-02-14T09:21:28;5.33;;;4.13;;
4074;SDS011;2052;53.522;9.806;2024-02-14T09:23:55;5.80;;;3.83;;
4074;SDS011;2052;53.522;9.806;2024-02-14T09:26:22;6.50;;;3.90;;
4074;SDS011;2052;53.522;9.806;2024-02-14T09:28:49;5.97;;;4.23;;
4074;SDS011;2052;53.522;9.806;2024-02-14T09:31:19;6.10;;;3.70;;
4074;SDS011;2052;53.522;9.806;2024-02-14T09:33:50;3.90;;;3.23;;
4074;SDS011;2052;53.522;9.806;2024-02-14T09:36:18;5.43;;;3.77;;
4074;SDS011;2052;53.522;9.806;2024-02-14T09:38:44;5.80;;;3.50;;
4074;SDS011;2052;53.522;9.806;2024-02-14T09:41:12;5.30;;;3.73;;
4074;SDS011;2052;53.522;9.806;2024-02-14T09:43:43;5.07;;;3.57;;
4074;SDS011;2052;53.522;9.806;2024-02-14T09:46:11;5.00;;;3.50;;
4074;SDS011;2052;53.522;9.806;2024-02-14T09:48:40;7.10;;;3.70;;
4074;SDS011;2052;53.522;9.806;2024-02-14T09:51:11;4.13;;;3.13;;
4074;SDS011;2052;53.522;9.806;2024-02-14T09:53:38;4.83;;;3.30;;
4074;SDS011;2052;53.522;9.806;2024-02-14T09:56:05;5.77;;;3.43;;
4074;SDS011;2052;53.522;9.806;2024-02-14T09:58:32;4.93;;;3.50;;
4074;SDS011;2052;53.522;9.806;2024-02-14T10:00:58;3.20;;;2.33;;
4074;SDS011;2052;53.522;9.806;2024-02-14T10:03:26;4.47;;;3.27;;
4074;SDS011;2052;53.522;9.806;2024-02-14T10:05:53;3.47;;;3.13;;
4074;SDS011;2052;53.522;9.806;2024-02-14T10:08:21;4.00;;;3.30;;
4074;SDS011;2052;53.522;9.806;2024-02-14T10:10:48;4.17;;;2.93;;
4074;SDS011;2052;53.522;9.806;2024-02-14T10:13:15;3.57;;;2.90;;
4074;SDS011;2052;53.522;9.806;2024-02-14T10:15:42;3.57;;;2.67;;
4074;SDS011;2052;53.522;9.806;2024-02-14T10:18:08;5.03;;;2.90;;
4074;SDS011;2052;53.522;9.806;2024-02-14T10:20:39;3.00;;;2.50;;
4074;SDS011;2052;53.522;9.806;2024-02-14T10:23:10;4.23;;;3.07;;
4074;SDS011;2052;53.522;9.806;2024-02-14T10:25:38;6.90;;;3.67;;
4074;SDS011;2052;53.522;9.806;2024-02-14T10:28:05;4.60;;;2.90;;
4074;SDS011;2052;53.522;9.806;2024-02-14T10:30:33;4.53;;;2.83;;
4074;SDS011;2052;53.522;9.806;2024-02-14T10:33:01;6.23;;;3.50;;
4074;SDS011;2052;53.522;9.806;2024-02-14T10:35:29;4.37;;;3.00;;
4074;SDS011;2052;53.522;9.806;2024-02-14T10:37:57;4.00;;;3.30;;
4074;SDS011;2052;53.522;9.806;2024-02-14T10:40:27;4.67;;;3.10;;
4074;SDS011;2052;53.522;9.806;2024-02-14T10:42:55;5.90;;;3.57;;
4074;SDS011;2052;53.522;9.806;2024-02-14T10:45:24;6.77;;;4.00;;
4074;SDS011;2052;53.522;9.806;2024-02-14T10:47:51;7.30;;;3.83;;
4074;SDS011;2052;53.522;9.806;2024-02-14T10:50:21;6.20;;;3.73;;
4074;SDS011;2052;53.522;9.806;2024-02-14T10:52:48;6.17;;;3.67;;
4074;SDS011;2052;53.522;9.806;2024-02-14T10:55:15;5.83;;;3.30;;
4074;SDS011;2052;53.522;9.806;2024-02-14T10:57:43;4.57;;;3.40;;
4074;SDS011;2052;53.522;9.806;2024-02-14T11:00:12;6.40;;;3.93;;
4074;SDS011;2052;53.522;9.806;2024-02-14T11:02:42;5.13;;;3.80;;
4074;SDS011;2052;53.522;9.806;2024-02-14T11:05:13;4.60;;;3.53;;
4074;SDS011;2052;53.522;9.806;2024-02-14T11:07:49;5.37;;;3.87;;
4074;SDS011;2052;53.522;9.806;2024-02-14T11:10:23;5.20;;;3.70;;
4074;SDS011;2052;53.522;9.806;2024-02-14T11:12:50;6.13;;;4.13;;
4074;SDS011;2052;53.522;9.806;2024-02-14T11:15:19;4.67;;;3.63;;
4074;SDS011;2052;53.522;9.806;2024-02-14T11:17:46;6.40;;;3.63;;
4074;SDS011;2052;53.522;9.806;2024-02-14T11:20:17;6.40;;;4.20;;
4074;SDS011;2052;53.522;9.806;2024-02-14T11:22:54;5.43;;;3.83;;
4074;SDS011;2052;53.522;9.806;2024-02-14T11:25:22;5.80;;;3.83;;
4074;SDS011;2052;53.522;9.806;2024-02-14T11:27:50;5.53;;;3.57;;
4074;SDS011;2052;53.522;9.806;2024-02-14T11:30:27;6.47;;;4.00;;
4074;SDS011;2052;53.522;9.806;2024-02-14T11:32:55;5.43;;;3.60;;
4074;SDS011;2052;53.522;9.806;2024-02-14T11:35:34;4.77;;;3.40;;
4074;SDS011;2052;53.522;9.806;2024-02-14T11:38:01;6.00;;;4.20;;
4074;SDS011;2052;53.522;9.806;2024-02-14T11:40:28;5.20;;;3.60;;
4074;SDS011;2052;53.522;9.806;2024-02-14T11:42:55;5.80;;;3.80;;
4074;SDS011;2052;53.522;9.806;2024-02-14T11:45:22;5.57;;;3.80;;
4074;SDS011;2052;53.522;9.806;2024-02-14T11:47:50;6.27;;;3.60;;
4074;SDS011;2052;53.522;9.806;2024-02-14T11:50:17;7.30;;;4.10;;
4074;SDS011;2052;53.522;9.806;2024-02-14T11:52:44;5.70;;;3.77;;
4074;SDS011;2052;53.522;9.806;2024-02-14T11:55:10;5.90;;;3.70;;
4074;SDS011;2052;53.522;9.806;2024-02-14T11:57:39;6.17;;;4.00;;
4074;SDS011;2052;53.522;9.806;2024-02-14T12:00:06;5.20;;;3.70;;
4074;SDS011;2052;53.522;9.806;2024-02-14T12:02:34;5.10;;;3.60;;
4074;SDS011;2052;53.522;9.806;2024-02-14T12:05:02;8.03;;;4.47;;
4074;SDS011;2052;53.522;9.806;2024-02-14T12:07:31;8.60;;;4.57;;
4074;SDS011;2052;53.522;9.806;2024-02-14T12:09:59;6.93;;;4.77;;
4074;SDS011;2052;53.522;9.806;2024-02-14T12:12:25;6.30;;;4.10;;
4074;SDS011;2052;53.522;9.806;2024-02-14T12:14:53;6.07;;;4.10;;
4074;SDS011;2052;53.522;9.806;2024-02-14T12:17:19;9.47;;;4.83;;
4074;SDS011;2052;53.522;9.806;2024-02-14T12:19:47;8.30;;;4.50;;
4074;SDS011;2052;53.522;9.806;2024-02-14T12:22:17;10.40;;;5.80;;
4074;SDS011;2052;53.522;9.806;2024-02-14T12:24:44;9.37;;;4.97;;
4074;SDS011;2052;53.522;9.806;2024-02-14T12:27:12;10.80;;;6.10;;
4074;SDS011;2052;53.522;9.806;2024-02-14T12:29:39;10.80;;;5.97;;
4074;SDS011;2052;53.522;9.806;2024-02-14T12:32:06;9.30;;;5.57;;
4074;SDS011;2052;53.522;9.806;2024-02-14T12:34:33;9.37;;;5.20;;
4074;SDS011;2052;53.522;9.806;2024-02-14T12:37:00;14.90;;;5.43;;
4074;SDS011;2052;53.522;9.806;2024-02-14T12:39:30;9.17;;;6.03;;
4074;SDS011;2052;53.522;9.806;2024-02-14T12:41:56;13.20;;;7.00;;
4074;SDS011;2052;53.522;9.806;2024-02-14T12:44:23;13.83;;;6.83;;
4074;SDS011;2052;53.522;9.806;2024-02-14T12:46:49;13.40;;;7.53;;
4074;SDS011;2052;53.522;9.806;2024-02-14T12:49:16;13.53;;;7.60;;
4074;SDS011;2052;53.522;9.806;2024-02-14T12:51:43;15.97;;;7.93;;
4074;SDS011;2052;53.522;9.806;2024-02-14T12:54:10;14.13;;;7.53;;
4074;SDS011;2052;53.522;9.806;2024-02-14T12:56:38;14.50;;;7.03;;
4074;SDS011;2052;53.522;9.806;2024-02-14T12:59:05;13.07;;;7.37;;
4074;SDS011;2052;53.522;9.806;2024-02-14T13:01:35;13.50;;;6.93;;
4074;SDS011;2052;53.522;9.806;2024-02-14T13:04:01;11.50;;;6.10;;
4074;SDS011;2052;53.522;9.806;2024-02-14T13:06:30;12.83;;;6.77;;
4074;SDS011;2052;53.522;9.806;2024-02-14T13:08:57;12.43;;;6.33;;
4074;SDS011;2052;53.522;9.806;2024-02-14T13:11:23;9.60;;;5.10;;
4074;SDS011;2052;53.522;9.806;2024-02-14T13:13:51;11.03;;;6.03;;
4074;SDS011;2052;53.522;9.806;2024-02-14T13:16:18;11.40;;;6.67;;
4074;SDS011;2052;53.522;9.806;2024-02-14T13:18:45;10.43;;;5.20;;
4074;SDS011;2052;53.522;9.806;2024-02-14T13:21:11;9.63;;;5.70;;
4074;SDS011;2052;53.522;9.806;2024-02-14T13:23:38;9.73;;;5.40;;
4074;SDS011;2052;53.522;9.806;2024-02-14T13:26:05;10.73;;;5.00;;
4074;SDS011;2052;53.522;9.806;2024-02-14T13:28:32;9.20;;;5.30;;
4074;SDS011;2052;53.522;9.806;2024-02-14T13:31:00;6.50;;;4.27;;
4074;SDS011;2052;53.522;9.806;2024-02-14T13:33:27;10.77;;;6.27;;
4074;SDS011;2052;53.522;9.806;2024-02-14T13:35:54;12.00;;;6.00;;
4074;SDS011;2052;53.522;9.806;2024-02-14T13:38:20;9.97;;;6.23;;
4074;SDS011;2052;53.522;9.806;2024-02-14T13:40:47;10.63;;;5.60;;
4074;SDS011;2052;53.522;9.806;2024-02-14T13:43:15;12.53;;;5.17;;
4074;SDS011;2052;53.522;9.806;2024-02-14T13:45:43;13.10;;;6.33;;
4074;SDS011;2052;53.522;9.806;2024-02-14T13:48:12;13.73;;;5.70;;
4074;SDS011;2052;53.522;9.806;2024-02-14T13:50:39;14.33;;;6.70;;
4074;SDS011;2052;53.522;9.806;2024-02-14T13:53:06;10.07;;;6.30;;
4074;SDS011;2052;53.522;9.806;2024-02-14T13:55:33;10.77;;;5.80;;
4074;SDS011;2052;53.522;9.806;2024-02-14T13:58:00;10.10;;;5.93;;
4074;SDS011;2052;53.522;9.806;2024-02-14T14:00:26;16.33;;;5.53;;
4074;SDS011;2052;53.522;9.806;2024-02-14T14:02:53;12.50;;;5.93;;
4074;SDS011;2052;53.522;9.806;2024-02-14T14:05:24;9.87;;;5.57;;
4074;SDS011;2052;53.522;9.806;2024-02-14T14:07:51;7.20;;;5.10;;
4074;SDS011;2052;53.522;9.806;2024-02-14T14:10:18;8.80;;;5.77;;
4074;SDS011;2052;53.522;9.806;2024-02-14T14:12:45;9.47;;;5.67;;
4074;SDS011;2052;53.522;9.806;2024-02-14T14:15:12;10.23;;;5.70;;
4074;SDS011;2052;53.522;9.806;2024-02-14T14:17:42;9.17;;;5.20;;
4074;SDS011;2052;53.522;9.806;2024-02-14T14:20:10;9.90;;;5.13;;
4074;SDS011;2052;53.522;9.806;2024-02-14T14:22:40;12.93;;;8.30;;
4074;SDS011;2052;53.522;9.806;2024-02-14T14:25:07;9.03;;;5.90;;
4074;SDS011;2052;53.522;9.806;2024-02-14T14:27:34;10.27;;;5.60;;
4074;SDS011;2052;53.522;9.806;2024-02-14T14:30:01;10.10;;;6.00;;
4074;SDS011;2052;53.522;9.806;2024-02-14T14:32:31;10.80;;;6.13;;
4074;SDS011;2052;53.522;9.806;2024-02-14T14:35:00;19.53;;;6.80;;
4074;SDS011;2052;53.522;9.806;2024-02-14T14:37:29;12.20;;;6.67;;
4074;SDS011;2052;53.522;9.806;2024-02-14T14:39:57;10.23;;;6.67;;
4074;SDS011;2052;53.522;9.806;2024-02-14T14:42:25;11.13;;;6.47;;
4074;SDS011;2052;53.522;9.806;2024-02-14T14:44:53;13.37;;;5.67;;
4074;SDS011;2052;53.522;9.806;2024-02-14T14:47:20;11.70;;;6.70;;
4074;SDS011;2052;53.522;9.806;2024-02-14T14:50:02;11.60;;;6.97;;
4074;SDS011;2052;53.522;9.806;2024-02-14T14:52:29;12.20;;;5.97;;
4074;SDS011;2052;53.522;9.806;2024-02-14T14:54:57;11.70;;;6.40;;
4074;SDS011;2052;53.522;9.806;2024-02-14T14:57:24;14.63;;;6.10;;
4074;SDS011;2052;53.522;9.806;2024-02-14T14:59:52;10.57;;;6.13;;
4074;SDS011;2052;53.522;9.806;2024-02-14T15:02:20;9.97;;;5.40;;
4074;SDS011;2052;53.522;9.806;2024-02-14T15:04:47;11.43;;;5.90;;
4074;SDS011;2052;53.522;9.806;2024-02-14T15:07:13;9.07;;;6.40;;
4074;SDS011;2052;53.522;9.806;2024-02-14T15:09:41;7.90;;;5.37;;
4074;SDS011;2052;53.522;9.806;2024-02-14T15:12:09;10.03;;;5.80;;
4074;SDS011;2052;53.522;9.806;2024-02-14T15:14:36;8.90;;;5.30;;